Time;durP1;ratioP1;P1;durP2;ratioP2;P2;SDS_P1;SDS_P2;PMS_P1;PMS_P2;Temp;Humidity;BMP_temperature;BMP_pressure;BME280_temperature;BME280_humidity;BME280_pressure;Samples;Min_cycle;Max_cycle;Signal;HPM_P1;HPM_P2
2022/11/03 00:00:56;;;;;;;18.97;9.93;;;8.50;40.00;;;;;;4985238;28;21000;-62
2022/11/03 00:03:23;;;;;;;19.27;10.23;;;8.50;40.00;;;;;;4984313;28;20927;-62
2022/11/03 00:06:04;;;;;;;15.27;7.97;;;8.50;40.70;;;;;;4987941;28;20543;-62
2022/11/03 00:08:32;;;;;;;13.23;8.60;;;8.50;39.90;;;;;;4983745;28;20972;-62
2022/11/03 00:11:04;;;;;;;13.17;8.70;;;8.50;40.00;;;;;;4980111;28;20466;-62
2022/11/03 00:13:31;;;;;;;18.70;8.47;;;8.50;39.90;;;;;;4984270;28;20889;-61
2022/11/03 00:15:57;;;;;;;23.13;8.70;;;8.50;39.70;;;;;;4982263;28;21029;-61
2022/11/03 00:18:24;;;;;;;18.47;8.07;;;8.50;39.50;;;;;;4984781;28;20467;-63
2022/11/03 00:20:56;;;;;;;19.80;9.37;;;8.50;39.40;;;;;;4977839;28;20460;-63
2022/11/03 00:23:26;;;;;;;21.77;9.00;;;8.40;39.30;;;;;;4982667;28;20987;-61
2022/11/03 00:25:52;;;;;;;16.57;8.50;;;8.40;39.30;;;;;;4983580;28;20519;-61
2022/11/03 00:28:20;;;;;;;23.23;10.07;;;8.40;39.40;;;;;;4984101;28;20716;-62
2022/11/03 00:30:47;;;;;;;38.17;10.63;;;8.40;39.40;;;;;;4987547;28;20472;-61
2022/11/03 00:33:14;;;;;;;20.13;9.13;;;8.40;39.20;;;;;;4981234;28;20476;-63
2022/11/03 00:35:41;;;;;;;23.40;8.40;;;8.40;39.20;;;;;;4985530;28;20464;-62
2022/11/03 00:38:08;;;;;;;25.73;9.00;;;8.40;39.30;;;;;;4985283;28;20465;-61
2022/11/03 00:40:34;;;;;;;18.17;7.77;;;8.30;39.50;;;;;;4985776;28;20855;-61
2022/11/03 00:43:01;;;;;;;20.77;8.03;;;8.30;39.70;;;;;;4987980;28;20481;-63
2022/11/03 00:45:29;;;;;;;25.33;8.67;;;8.20;39.80;;;;;;4979095;28;20461;-60
2022/11/03 00:50:41;;;;;;;20.27;8.43;;;8.10;40.20;;;;;;4987421;28;20528;-61
2022/11/03 00:53:07;;;;;;;23.60;7.80;;;8.10;40.30;;;;;;4985161;28;20494;-61
2022/11/03 00:55:34;;;;;;;25.67;8.97;;;8.10;40.50;;;;;;4986722;28;20461;-62
2022/11/03 00:58:01;;;;;;;17.47;8.40;;;8.00;40.50;;;;;;4985837;28;20461;-61
2022/11/03 01:00:29;;;;;;;16.40;9.53;;;8.00;40.60;;;;;;4986137;28;20460;-61
2022/11/03 01:02:56;;;;;;;23.03;8.77;;;8.00;40.80;;;;;;4990973;28;20485;-61
2022/11/03 01:08:15;;;;;;;26.13;9.80;;;8.10;41.00;;;;;;4960293;28;21149;-61
2022/11/03 01:11:42;;;;;;;42.87;10.27;;;8.10;41.70;;;;;;4989610;28;20456;-61
2022/11/03 01:13:28;;;;;;;29.07;10.93;;;8.10;41.20;;;;;;4987212;28;20542;-61
2022/11/03 01:15:58;;;;;;;27.03;9.10;;;8.10;41.20;;;;;;4985427;28;20880;-62
2022/11/03 01:18:26;;;;;;;16.07;7.47;;;8.10;41.40;;;;;;4985094;28;20376;-62
2022/11/03 01:20:56;;;;;;;36.80;9.87;;;8.10;41.40;;;;;;4988700;28;20483;-62
2022/11/03 01:23:24;;;;;;;42.67;10.63;;;8.10;41.40;;;;;;4983556;28;21269;-62
2022/11/03 01:25:50;;;;;;;76.60;11.07;;;8.10;41.60;;;;;;4988852;28;20491;-62
2022/11/03 01:28:17;;;;;;;17.93;8.90;;;8.10;41.70;;;;;;4989550;28;20457;-62
2022/11/03 01:30:44;;;;;;;23.40;8.57;;;8.10;41.70;;;;;;4984229;28;22527;-62
2022/11/03 01:33:13;;;;;;;31.47;9.80;;;8.10;41.80;;;;;;4984347;28;20992;-62
2022/11/03 01:35:40;;;;;;;30.90;7.70;;;8.10;41.80;;;;;;4989649;28;20460;-62
2022/11/03 01:38:07;;;;;;;14.70;7.30;;;8.10;41.60;;;;;;4983669;28;20465;-62
2022/11/03 01:40:34;;;;;;;21.23;7.90;;;8.10;41.50;;;;;;4989167;28;20467;-62
2022/11/03 01:43:15;;;;;;;24.13;8.40;;;8.00;41.40;;;;;;4988507;28;20478;-62
2022/11/03 01:45:42;;;;;;;23.17;7.57;;;8.00;41.80;;;;;;4985633;28;20456;-62
2022/11/03 01:48:09;;;;;;;15.43;9.23;;;8.00;41.50;;;;;;4989324;28;20949;-62
2022/11/03 01:50:39;;;;;;;23.80;9.10;;;8.00;41.50;;;;;;4987577;28;20479;-64
2022/11/03 01:53:07;;;;;;;22.37;8.60;;;8.00;41.50;;;;;;4987585;28;20483;-61
2022/11/03 01:55:38;;;;;;;17.53;8.00;;;8.00;41.30;;;;;;4984695;28;20466;-63
2022/11/03 01:58:10;;;;;;;20.90;7.70;;;8.10;41.50;;;;;;4988569;28;20491;-62
2022/11/03 02:00:37;;;;;;;18.97;7.80;;;8.00;41.40;;;;;;4983237;28;20475;-62
2022/11/03 02:03:05;;;;;;;13.63;7.07;;;8.00;41.40;;;;;;4982918;28;20489;-61
2022/11/03 02:05:32;;;;;;;18.10;7.97;;;8.00;41.20;;;;;;4988197;28;20474;-62
2022/11/03 02:08:07;;;;;;;9.33;5.63;;;8.00;41.10;;;;;;4988626;28;20480;-62
2022/11/03 02:10:34;;;;;;;9.10;6.00;;;8.00;41.00;;;;;;4984433;28;20960;-61
2022/11/03 02:13:07;;;;;;;23.47;6.67;;;8.00;40.80;;;;;;4987500;28;20495;-63
2022/11/03 02:15:35;;;;;;;12.80;6.60;;;8.00;40.80;;;;;;4983199;28;20461;-61
2022/11/03 02:18:05;;;;;;;9.83;6.30;;;8.00;40.70;;;;;;4984944;28;20469;-62
2022/11/03 02:20:33;;;;;;;18.33;7.13;;;8.00;40.40;;;;;;4986923;28;20815;-62
2022/11/03 02:23:24;;;;;;;16.20;6.60;;;8.00;40.90;;;;;;4983370;28;20489;-62
2022/11/03 02:25:54;;;;;;;14.83;5.50;;;8.00;40.20;;;;;;4987023;28;20465;-63
2022/11/03 02:28:24;;;;;;;13.80;6.43;;;8.00;39.90;;;;;;4987977;28;20689;-61
2022/11/03 02:30:59;;;;;;;12.60;6.63;;;8.00;39.90;;;;;;4986334;28;20478;-62
2022/11/03 02:33:35;;;;;;;33.03;7.50;;;7.90;39.90;;;;;;4981026;28;20479;-61
2022/11/03 02:36:10;;;;;;;32.33;7.43;;;7.90;40.00;;;;;;4981750;28;20467;-61
2022/11/03 02:38:43;;;;;;;17.23;7.00;;;7.90;40.00;;;;;;4981792;28;20476;-62
2022/11/03 02:41:13;;;;;;;14.43;6.10;;;7.90;40.10;;;;;;4978742;28;20472;-60
2022/11/03 02:43:41;;;;;;;19.10;5.20;;;7.90;40.30;;;;;;4987436;28;20488;-61
2022/11/03 02:46:08;;;;;;;27.80;6.40;;;7.90;40.30;;;;;;4988058;28;20457;-63
2022/11/03 02:48:36;;;;;;;34.23;6.80;;;7.80;40.20;;;;;;4983736;28;20460;-63
2022/11/03 02:51:03;;;;;;;40.10;6.73;;;7.90;40.20;;;;;;4980752;28;20562;-62
2022/11/03 02:53:32;;;;;;;25.20;6.70;;;7.80;40.10;;;;;;4983588;28;20482;-61
2022/11/03 02:56:04;;;;;;;32.87;7.40;;;7.80;40.20;;;;;;4984690;28;20534;-61
2022/11/03 02:58:38;;;;;;;35.67;6.50;;;7.80;40.40;;;;;;4986800;28;20456;-61
2022/11/03 03:01:17;;;;;;;21.23;7.47;;;7.70;40.60;;;;;;4987018;28;20472;-61
2022/11/03 03:03:48;;;;;;;53.70;8.70;;;7.70;40.80;;;;;;4988296;28;20493;-61
2022/11/03 03:06:19;;;;;;;21.07;7.13;;;7.70;40.90;;;;;;4987148;28;20461;-62
2022/11/03 03:08:52;;;;;;;23.20;7.40;;;7.70;41.00;;;;;;4979781;28;20495;-63
2022/11/03 03:11:35;;;;;;;29.87;7.73;;;7.70;41.00;;;;;;4981750;28;20473;-62
2022/11/03 03:14:05;;;;;;;14.47;7.63;;;7.80;41.10;;;;;;4987319;28;20975;-62
2022/11/03 03:16:36;;;;;;;14.80;6.53;;;7.70;41.10;;;;;;4988394;28;20463;-61
2022/11/03 03:19:12;;;;;;;28.47;7.33;;;7.70;41.30;;;;;;4980271;28;20453;-61
2022/11/03 03:21:45;;;;;;;39.23;8.77;;;7.70;41.50;;;;;;4985829;28;20476;-61
2022/11/03 03:24:18;;;;;;;58.43;9.13;;;7.60;41.40;;;;;;4987192;28;20463;-62
2022/11/03 03:26:49;;;;;;;20.97;8.50;;;7.60;41.40;;;;;;4987369;28;20461;-62
2022/11/03 03:29:22;;;;;;;37.87;9.33;;;7.60;41.60;;;;;;4984887;28;20510;-62
2022/11/03 03:31:55;;;;;;;16.93;7.00;;;7.50;42.00;;;;;;4977912;28;20485;-62
2022/11/03 03:34:24;;;;;;;42.47;9.40;;;7.50;42.10;;;;;;4984954;28;20469;-62
2022/11/03 03:36:52;;;;;;;28.53;8.10;;;7.60;42.40;;;;;;4987666;28;20460;-62
2022/11/03 03:39:22;;;;;;;33.00;8.67;;;7.60;42.50;;;;;;4984997;28;20472;-62
2022/11/03 03:41:49;;;;;;;35.97;8.40;;;7.50;42.50;;;;;;4977673;28;20485;-62
2022/11/03 03:44:18;;;;;;;13.20;7.80;;;7.60;42.50;;;;;;4984585;28;20480;-62
2022/11/03 03:46:51;;;;;;;36.80;7.87;;;7.60;42.60;;;;;;4975961;28;20457;-62
2022/11/03 03:49:18;;;;;;;21.90;7.70;;;7.60;42.60;;;;;;4982761;28;20468;-62
2022/11/03 03:51:46;;;;;;;39.73;7.50;;;7.60;42.30;;;;;;4985188;28;21194;-62
2022/11/03 03:54:13;;;;;;;64.30;9.90;;;7.50;42.50;;;;;;4983766;28;20464;-62
2022/11/03 03:56:45;;;;;;;59.63;8.80;;;7.50;42.60;;;;;;4987106;28;20461;-61
2022/11/03 03:59:12;;;;;;;47.67;7.60;;;7.40;42.30;;;;;;4990941;28;20517;-62
2022/11/03 04:01:40;;;;;;;45.83;7.53;;;7.30;42.50;;;;;;4984606;28;20484;-62
2022/11/03 04:04:07;;;;;;;36.17;8.60;;;7.20;42.80;;;;;;4980639;28;20539;-62
2022/11/03 04:06:34;;;;;;;46.47;7.30;;;7.20;43.10;;;;;;4984011;28;20465;-62
2022/11/03 04:09:00;;;;;;;44.27;7.80;;;7.20;43.50;;;;;;4985887;28;20840;-62
2022/11/03 04:22:30;;;;;;;39.60;7.80;;;7.00;43.90;;;;;;4985774;28;20479;-62
2022/11/03 04:24:58;;;;;;;26.93;6.90;;;6.90;43.80;;;;;;4984788;28;20833;-61
2022/11/03 04:27:33;;;;;;;37.47;8.83;;;6.90;44.00;;;;;;4984927;28;20460;-62
2022/11/03 04:30:06;;;;;;;45.20;9.33;;;6.90;44.30;;;;;;4986201;28;20448;-62
2022/11/03 04:32:34;;;;;;;28.57;7.70;;;6.90;44.10;;;;;;4984928;28;20515;-61
2022/11/03 04:35:01;;;;;;;26.80;7.30;;;6.90;44.20;;;;;;4986432;28;20847;-61
2022/11/03 04:37:28;;;;;;;35.40;8.23;;;6.90;44.20;;;;;;4995544;28;20868;-62
2022/11/03 04:40:00;;;;;;;42.70;7.90;;;6.90;44.30;;;;;;4988288;28;20465;-62
2022/11/03 04:42:27;;;;;;;28.63;8.50;;;6.80;44.40;;;;;;4990229;28;20917;-61
2022/11/03 04:44:54;;;;;;;39.63;7.70;;;6.80;44.10;;;;;;4990753;28;20958;-61
2022/11/03 04:47:21;;;;;;;41.77;8.43;;;6.80;44.30;;;;;;4990727;28;20460;-61
2022/11/03 04:49:49;;;;;;;58.63;8.13;;;6.80;44.40;;;;;;4982993;28;20490;-61
2022/11/03 04:52:19;;;;;;;71.93;9.00;;;6.70;44.40;;;;;;4993023;28;20895;-61
2022/11/03 04:54:48;;;;;;;46.73;8.00;;;6.80;44.40;;;;;;4989892;28;20464;-61
2022/11/03 04:57:16;;;;;;;44.37;8.30;;;6.80;44.20;;;;;;4980754;28;20469;-63
2022/11/03 04:59:47;;;;;;;63.73;10.67;;;6.70;44.40;;;;;;4981471;28;20464;-63
2022/11/03 05:02:17;;;;;;;17.00;7.60;;;6.70;44.60;;;;;;4985980;28;20485;-63
2022/11/03 05:04:44;;;;;;;20.37;8.00;;;6.70;44.40;;;;;;4983548;28;22825;-63
2022/11/03 05:07:26;;;;;;;44.33;7.43;;;6.70;44.40;;;;;;4986273;28;20469;-63
2022/11/03 05:09:53;;;;;;;40.70;7.60;;;6.70;44.40;;;;;;4984900;28;20862;-62
2022/11/03 05:12:21;;;;;;;12.67;6.87;;;6.70;44.20;;;;;;4983469;28;20511;-63
2022/11/03 05:14:49;;;;;;;24.50;9.83;;;6.70;44.30;;;;;;4986592;28;20460;-63
2022/11/03 05:17:22;;;;;;;27.73;7.40;;;6.70;44.40;;;;;;4981477;28;20473;-71
2022/11/03 05:19:51;;;;;;;38.13;6.80;;;6.80;44.40;;;;;;4985968;28;20957;-64
2022/11/03 05:22:22;;;;;;;16.60;7.90;;;6.80;44.10;;;;;;4993895;23;20465;-61
2022/11/03 05:24:52;;;;;;;14.70;6.33;;;6.80;44.10;;;;;;4952723;28;20475;-63
2022/11/03 05:27:21;;;;;;;41.93;7.40;;;6.80;43.90;;;;;;4960907;28;21197;-62
2022/11/03 05:29:50;;;;;;;38.60;7.70;;;6.80;43.90;;;;;;4959115;28;20470;-61
2022/11/03 05:32:21;;;;;;;25.27;7.90;;;6.80;43.80;;;;;;4966445;28;21013;-61
2022/11/03 05:34:49;;;;;;;13.93;5.83;;;6.80;43.70;;;;;;4960045;28;20467;-62
2022/11/03 05:37:36;;;;;;;14.80;7.27;;;6.80;43.70;;;;;;4957613;28;20644;-62
2022/11/03 05:40:14;;;;;;;28.17;7.10;;;6.80;43.70;;;;;;4963504;28;20522;-60
2022/11/03 05:42:43;;;;;;;29.40;7.70;;;6.80;43.50;;;;;;4962694;28;21018;-62
2022/11/03 05:45:20;;;;;;;34.47;8.10;;;6.80;43.30;;;;;;4956721;28;20493;-62
2022/11/03 05:47:48;;;;;;;9.73;6.50;;;6.80;43.30;;;;;;4962735;28;20475;-62
2022/11/03 05:50:20;;;;;;;15.23;7.20;;;6.80;43.30;;;;;;4959015;28;20466;-61
2022/11/03 05:52:51;;;;;;;17.77;8.43;;;6.90;43.40;;;;;;4957276;28;20482;-60
2022/11/03 05:55:26;;;;;;;34.67;7.77;;;6.90;43.30;;;;;;4956840;28;20466;-62
2022/11/03 05:57:54;;;;;;;21.77;8.10;;;6.90;43.40;;;;;;4963879;28;20492;-62
2022/11/03 06:00:27;;;;;;;23.73;8.00;;;6.90;43.20;;;;;;4951202;28;20462;-60
2022/11/03 06:02:56;;;;;;;26.07;8.10;;;6.90;43.10;;;;;;4962039;28;20478;-61
2022/11/03 06:05:24;;;;;;;25.73;8.20;;;6.90;43.10;;;;;;4955048;28;20470;-61
2022/11/03 06:07:54;;;;;;;16.60;7.87;;;6.90;43.00;;;;;;4963003;28;20473;-61
2022/11/03 06:10:25;;;;;;;14.30;7.93;;;7.00;42.90;;;;;;4956336;28;20466;-62
2022/11/03 06:12:54;;;;;;;17.90;7.73;;;7.00;42.90;;;;;;4958144;28;20485;-61
2022/11/03 06:15:32;;;;;;;45.17;8.80;;;7.00;42.90;;;;;;4952526;28;20469;-61
2022/11/03 06:18:00;;;;;;;14.80;7.67;;;7.00;42.90;;;;;;4957274;28;20473;-60
2022/11/03 06:20:28;;;;;;;34.70;7.97;;;7.00;42.50;;;;;;4953925;28;20469;-60
2022/11/03 06:22:56;;;;;;;13.97;7.20;;;7.00;42.70;;;;;;4958423;28;20529;-61
2022/11/03 06:25:28;;;;;;;36.43;8.20;;;7.00;42.50;;;;;;4954495;28;20469;-61
2022/11/03 06:27:59;;;;;;;16.73;7.57;;;7.00;42.50;;;;;;4963944;28;20462;-61
2022/11/03 06:30:29;;;;;;;20.07;8.83;;;7.00;42.50;;;;;;4962807;28;21032;-61
2022/11/03 06:32:59;;;;;;;20.03;7.63;;;7.00;42.50;;;;;;4962407;28;20614;-61
2022/11/03 06:35:26;;;;;;;27.73;8.03;;;7.00;42.50;;;;;;4962925;28;20465;-61
2022/11/03 06:37:53;;;;;;;14.93;7.77;;;7.10;42.60;;;;;;4960768;28;20463;-61
2022/11/03 06:40:39;;;;;;;42.63;8.80;;;7.10;42.60;;;;;;4961065;28;20461;-61
2022/11/03 06:43:23;;;;;;;25.13;8.00;;;7.10;42.80;;;;;;4958621;28;20497;-63
2022/11/03 06:45:53;;;;;;;17.33;7.63;;;7.10;42.50;;;;;;4959255;28;20532;-63
2022/11/03 06:48:27;;;;;;;36.73;8.50;;;7.10;42.30;;;;;;4953281;28;20935;-63
2022/11/03 06:50:54;;;;;;;18.63;7.70;;;7.10;42.50;;;;;;4957594;28;20473;-64
2022/11/03 06:53:24;;;;;;;25.17;7.80;;;7.10;42.40;;;;;;4955457;28;20482;-63
2022/11/03 06:55:53;;;;;;;15.83;7.97;;;7.10;42.60;;;;;;4964008;28;20549;-62
2022/11/03 06:58:27;;;;;;;33.53;8.27;;;7.00;42.70;;;;;;4958309;28;20463;-62
2022/11/03 07:00:56;;;;;;;22.00;8.67;;;7.00;42.80;;;;;;4959297;28;21073;-62
2022/11/03 07:03:26;;;;;;;25.67;8.03;;;7.10;42.70;;;;;;4964176;28;21008;-62
2022/11/03 07:05:57;;;;;;;24.63;8.10;;;7.10;42.60;;;;;;4965395;28;20504;-62
2022/11/03 07:08:26;;;;;;;30.73;8.40;;;7.20;42.40;;;;;;4960465;28;22162;-63
2022/11/03 07:11:01;;;;;;;15.10;8.07;;;7.20;42.30;;;;;;4958246;28;20842;-62
2022/11/03 07:13:30;;;;;;;19.70;8.83;;;7.20;42.20;;;;;;4959902;28;20493;-60
2022/11/03 07:15:57;;;;;;;12.53;7.27;;;7.20;42.10;;;;;;4957553;28;20465;-61
2022/11/03 07:18:27;;;;;;;12.77;7.50;;;7.30;42.30;;;;;;4959870;28;20468;-62
2022/11/03 07:20:55;;;;;;;27.40;7.87;;;7.40;42.30;;;;;;4956056;28;20974;-61
2022/11/03 07:23:25;;;;;;;20.40;7.47;;;7.40;42.20;;;;;;4961298;28;21041;-62
2022/11/03 07:25:54;;;;;;;13.63;7.00;;;7.40;42.20;;;;;;4950551;28;20480;-61
2022/11/03 07:28:26;;;;;;;9.00;6.87;;;7.50;42.20;;;;;;4953700;28;20466;-61
2022/11/03 07:30:53;;;;;;;15.43;7.63;;;7.60;42.80;;;;;;4958221;28;20483;-61
2022/11/03 07:33:22;;;;;;;8.60;5.90;;;7.60;42.00;;;;;;4959984;28;20474;-61
2022/11/03 07:35:49;;;;;;;11.40;7.27;;;7.60;41.90;;;;;;4956813;28;20545;-61
2022/11/03 07:38:20;;;;;;;18.53;6.60;;;7.60;41.70;;;;;;4961497;28;20467;-61
2022/11/03 07:40:47;;;;;;;23.77;13.10;;;7.70;41.60;;;;;;4953411;28;20883;-63
2022/11/03 07:43:18;;;;;;;15.20;7.50;;;7.70;40.80;;;;;;4963946;28;20484;-63
2022/11/03 07:45:49;;;;;;;18.50;8.33;;;7.80;40.80;;;;;;4954294;28;20462;-64
2022/11/03 07:48:24;;;;;;;13.90;7.80;;;7.80;40.50;;;;;;4962423;28;20465;-60
2022/11/03 07:50:52;;;;;;;27.03;7.20;;;7.90;40.30;;;;;;4961820;28;20461;-60
2022/11/03 07:53:22;;;;;;;10.50;6.70;;;7.90;39.90;;;;;;4954459;28;20489;-62
2022/11/03 07:55:50;;;;;;;13.70;6.70;;;7.90;39.90;;;;;;4955930;28;20462;-61
2022/11/03 07:58:24;;;;;;;15.67;7.87;;;8.00;39.90;;;;;;4957811;28;20466;-62
2022/11/03 08:00:56;;;;;;;10.13;6.20;;;8.10;39.60;;;;;;4962166;28;20848;-60
2022/11/03 08:03:36;;;;;;;13.27;6.07;;;8.20;39.80;;;;;;4964269;28;20481;-68
2022/11/03 08:06:03;;;;;;;9.27;6.70;;;8.30;39.70;;;;;;4960352;28;20998;-61
2022/11/03 08:08:30;;;;;;;12.10;6.07;;;8.40;39.50;;;;;;4960730;28;20492;-61
2022/11/03 08:10:57;;;;;;;9.20;6.10;;;8.40;39.40;;;;;;4963879;28;21031;-62
2022/11/03 08:13:23;;;;;;;14.70;6.13;;;8.50;39.30;;;;;;4961462;28;20481;-61
2022/11/03 08:15:52;;;;;;;14.83;6.80;;;8.60;39.20;;;;;;4962299;28;20466;-61
2022/11/03 08:18:19;;;;;;;13.97;7.17;;;8.70;38.40;;;;;;4964097;28;20476;-61
2022/11/03 08:20:45;;;;;;;10.80;6.53;;;8.70;38.50;;;;;;4963810;28;20473;-62
2022/11/03 08:23:12;;;;;;;18.93;6.10;;;8.70;38.60;;;;;;4964327;28;20500;-62
2022/11/03 08:25:39;;;;;;;10.47;6.80;;;8.80;38.60;;;;;;4961758;28;20561;-61
2022/11/03 08:28:06;;;;;;;11.00;6.93;;;8.80;38.50;;;;;;4962503;28;20461;-60
2022/11/03 08:30:33;;;;;;;10.80;7.40;;;8.80;38.30;;;;;;4966102;28;20458;-60
2022/11/03 08:33:02;;;;;;;10.63;6.77;;;8.80;38.10;;;;;;4967326;28;20485;-61
2022/11/03 08:35:28;;;;;;;8.80;6.03;;;8.90;38.20;;;;;;4963444;28;20458;-63
2022/11/03 08:37:55;;;;;;;8.93;6.40;;;9.00;37.90;;;;;;4959041;28;20462;-60
2022/11/03 08:40:22;;;;;;;14.30;7.03;;;9.00;38.10;;;;;;4962789;28;20465;-63
2022/11/03 08:42:49;;;;;;;13.63;7.57;;;9.10;38.20;;;;;;4966498;28;20507;-61
2022/11/03 08:45:16;;;;;;;15.37;7.10;;;9.10;37.80;;;;;;4965998;28;20477;-61
2022/11/03 08:47:43;;;;;;;16.03;7.67;;;9.20;37.30;;;;;;4967295;28;20484;-62
2022/11/03 08:50:11;;;;;;;9.60;6.93;;;9.20;37.00;;;;;;4965592;28;20476;-62
2022/11/03 08:52:38;;;;;;;9.17;6.63;;;9.20;37.00;;;;;;4964857;28;20499;-61
2022/11/03 08:55:06;;;;;;;13.60;7.10;;;9.30;37.10;;;;;;4965782;28;20501;-62
2022/11/03 08:57:32;;;;;;;21.80;6.90;;;9.30;36.90;;;;;;4966410;28;20489;-61
2022/11/03 08:59:59;;;;;;;16.20;7.67;;;9.40;36.70;;;;;;4966274;28;20462;-62
2022/11/03 09:02:26;;;;;;;11.30;6.10;;;9.40;36.50;;;;;;4961098;28;20477;-62
2022/11/03 09:04:53;;;;;;;10.07;7.63;;;9.40;36.50;;;;;;4961552;28;20494;-62
2022/11/03 09:07:21;;;;;;;11.80;6.43;;;9.40;36.50;;;;;;4966290;28;20553;-60
2022/11/03 09:09:47;;;;;;;10.53;6.60;;;9.40;36.60;;;;;;4971382;28;20461;-60
2022/11/03 09:12:14;;;;;;;11.27;7.00;;;9.40;36.70;;;;;;4966398;28;20465;-62
2022/11/03 09:14:41;;;;;;;11.40;8.20;;;9.40;36.70;;;;;;4964879;28;20465;-62
2022/11/03 09:17:08;;;;;;;10.73;7.40;;;9.50;36.60;;;;;;4960147;28;20470;-61
2022/11/03 09:19:35;;;;;;;12.43;7.17;;;9.50;36.60;;;;;;4968397;28;20466;-62
2022/11/03 09:22:02;;;;;;;10.50;8.40;;;9.50;36.50;;;;;;4965670;28;20466;-61
2022/11/03 09:24:30;;;;;;;15.93;8.33;;;9.50;36.60;;;;;;4957893;28;21174;-61
2022/11/03 09:26:57;;;;;;;11.60;7.07;;;9.50;37.20;;;;;;4967242;28;20500;-61
2022/11/03 09:29:23;;;;;;;10.70;7.50;;;9.60;36.50;;;;;;4964837;28;20984;-61
2022/11/03 09:31:50;;;;;;;13.50;8.43;;;9.60;36.50;;;;;;4963288;28;20474;-61
2022/11/03 09:34:17;;;;;;;13.10;7.67;;;9.70;36.60;;;;;;4955371;28;20842;-61
2022/11/03 09:36:44;;;;;;;12.93;7.87;;;9.80;36.40;;;;;;4965215;28;20815;-61
2022/11/03 09:39:10;;;;;;;16.00;8.57;;;9.90;35.90;;;;;;4964446;28;20857;-61
2022/11/03 09:41:39;;;;;;;10.10;7.07;;;10.00;36.20;;;;;;4963928;28;20473;-61
2022/11/03 09:44:06;;;;;;;12.57;8.60;;;10.00;36.10;;;;;;4958765;28;20486;-61
2022/11/03 09:46:35;;;;;;;13.63;7.37;;;10.10;36.10;;;;;;4965230;28;20468;-60
2022/11/03 09:49:03;;;;;;;13.30;8.17;;;10.10;36.20;;;;;;4963094;28;20465;-60
2022/11/03 09:51:31;;;;;;;12.13;8.50;;;10.20;35.80;;;;;;4962892;28;20470;-61
2022/11/03 09:54:02;;;;;;;13.07;8.27;;;10.20;36.00;;;;;;4963582;28;20478;-61
2022/11/03 09:56:30;;;;;;;10.20;7.57;;;10.30;35.60;;;;;;4967907;28;20488;-61
2022/11/03 09:58:59;;;;;;;12.07;8.70;;;10.40;35.50;;;;;;4964692;28;20950;-61
2022/11/03 10:01:26;;;;;;;15.37;9.00;;;10.50;35.70;;;;;;4963222;28;20492;-61
2022/11/03 10:03:58;;;;;;;10.43;7.60;;;10.60;35.30;;;;;;4960151;28;20504;-61
2022/11/03 10:06:25;;;;;;;9.20;6.77;;;10.60;35.40;;;;;;4962447;28;20474;-61
2022/11/03 10:08:52;;;;;;;10.43;6.93;;;10.70;35.30;;;;;;4966623;28;20500;-61
2022/11/03 10:11:19;;;;;;;11.27;7.97;;;10.80;35.00;;;;;;4964926;28;21017;-62
2022/11/03 10:13:51;;;;;;;14.97;9.40;;;10.90;34.90;;;;;;4959205;28;21060;-60
2022/11/03 10:16:22;;;;;;;12.33;9.20;;;10.90;34.10;;;;;;4963255;28;20517;-61
2022/11/03 10:18:49;;;;;;;14.57;10.60;;;11.00;34.20;;;;;;4957078;28;20462;-61
2022/11/03 10:21:19;;;;;;;13.50;10.00;;;11.00;33.70;;;;;;4966715;28;21869;-61
2022/11/03 10:23:46;;;;;;;14.83;11.87;;;11.00;33.40;;;;;;4965301;28;20489;-62
2022/11/03 10:26:17;;;;;;;13.87;10.83;;;11.00;33.60;;;;;;4963413;28;20458;-62
2022/11/03 10:28:58;;;;;;;11.60;9.27;;;11.00;33.30;;;;;;4956507;28;20469;-59
2022/11/03 10:31:33;;;;;;;15.13;11.37;;;10.90;33.50;;;;;;4965996;28;21056;-61
2022/11/03 10:34:00;;;;;;;12.70;10.23;;;11.00;33.40;;;;;;4959541;28;20481;-61
2022/11/03 10:36:28;;;;;;;15.93;11.40;;;11.00;33.10;;;;;;4962245;28;20458;-62
2022/11/03 10:38:56;;;;;;;11.77;8.67;;;11.00;33.10;;;;;;4959947;28;20461;-63
2022/11/03 10:41:24;;;;;;;14.37;9.90;;;10.90;33.40;;;;;;4959639;28;20465;-62
2022/11/03 10:44:04;;;;;;;12.13;9.47;;;10.80;33.60;;;;;;4960894;28;20533;-62
2022/11/03 10:46:33;;;;;;;11.17;8.73;;;10.80;34.00;;;;;;4961031;28;20470;-62
2022/11/03 10:49:04;;;;;;;12.43;8.60;;;10.80;33.80;;;;;;4954359;28;20466;-61
2022/11/03 10:51:32;;;;;;;14.33;11.63;;;10.80;33.70;;;;;;4961330;28;20981;-61
2022/11/03 10:53:58;;;;;;;11.80;9.27;;;10.80;33.80;;;;;;4957771;28;20491;-61
2022/11/03 10:56:26;;;;;;;11.67;8.60;;;10.70;33.90;;;;;;4961753;28;20461;-61
2022/11/03 10:58:53;;;;;;;14.90;8.77;;;10.80;33.70;;;;;;4957781;28;20457;-61
2022/11/03 11:01:20;;;;;;;12.23;7.97;;;10.90;33.60;;;;;;4960466;28;20540;-61
2022/11/03 11:03:48;;;;;;;11.00;8.00;;;11.10;33.30;;;;;;4963368;28;20481;-61
2022/11/03 11:06:19;;;;;;;11.13;7.70;;;11.20;33.50;;;;;;4959726;28;20536;-60
2022/11/03 11:08:46;;;;;;;12.80;8.27;;;11.30;33.00;;;;;;4965369;28;20498;-60
2022/11/03 11:11:16;;;;;;;13.93;8.13;;;11.40;32.80;;;;;;4958012;28;20474;-61
2022/11/03 11:13:43;;;;;;;11.00;8.10;;;11.50;32.80;;;;;;4958210;28;20508;-61
2022/11/03 11:16:43;;;;;;;14.50;12.97;;;11.60;32.50;;;;;;4960917;28;20469;-61
2022/11/03 11:19:12;;;;;;;11.60;9.50;;;11.60;32.50;;;;;;4958693;28;20481;-63
2022/11/03 11:22:11;;;;;;;12.50;11.03;;;11.60;32.10;;;;;;4965381;28;20497;-62
2022/11/03 11:25:02;;;;;;;13.40;11.07;;;11.50;32.50;;;;;;4981916;23;20503;-67
2022/11/03 11:28:06;;;;;;;12.87;9.17;;;11.60;32.50;;;;;;4986235;28;20484;-67
2022/11/03 11:31:05;;;;;;;12.43;9.97;;;11.60;32.50;;;;;;4984716;28;20456;-68
2022/11/03 11:33:34;;;;;;;14.30;10.80;;;11.50;32.70;;;;;;4949822;28;20461;-68
2022/11/03 11:36:27;;;;;;;13.50;9.50;;;11.50;32.70;;;;;;4980709;28;20461;-68
2022/11/03 11:39:00;;;;;;;11.40;8.87;;;11.50;32.90;;;;;;4985277;28;20467;-68
2022/11/03 11:42:04;;;;;;;13.50;9.27;;;11.60;32.70;;;;;;4986662;28;20499;-68
2022/11/03 11:44:53;;;;;;;11.33;8.83;;;11.60;31.60;;;;;;4980505;28;20490;-68
2022/11/03 11:47:32;;;;;;;11.03;8.57;;;11.60;31.60;;;;;;4980378;28;20957;-68
2022/11/03 11:50:26;;;;;;;12.53;8.43;;;11.50;32.00;;;;;;4985767;28;20457;-69
2022/11/03 11:53:00;;;;;;;11.37;8.93;;;11.50;32.40;;;;;;4985073;28;20557;-69
2022/11/03 11:55:34;;;;;;;12.80;8.50;;;11.50;32.50;;;;;;4976412;28;20602;-69
2022/11/03 11:58:03;;;;;;;12.90;9.00;;;11.50;32.70;;;;;;4983334;28;20467;-68
2022/11/03 12:00:31;;;;;;;14.97;9.50;;;11.50;32.70;;;;;;4982558;28;20469;-64
2022/11/03 12:02:59;;;;;;;13.13;9.50;;;11.50;32.70;;;;;;4983912;28;20461;-71
2022/11/03 12:05:30;;;;;;;13.20;10.60;;;11.50;32.70;;;;;;4982228;28;20489;-73
2022/11/03 12:07:57;;;;;;;10.27;8.37;;;11.50;32.80;;;;;;4983835;28;20548;-77
2022/11/03 12:10:26;;;;;;;13.70;9.37;;;11.50;33.20;;;;;;4986671;28;20465;-63
2022/11/03 12:12:55;;;;;;;11.10;9.37;;;11.50;32.90;;;;;;4979651;28;21481;-64
2022/11/03 12:15:53;;;;;;;13.50;10.17;;;11.50;33.10;;;;;;4974590;28;20480;-72
2022/11/03 12:18:36;;;;;;;12.30;9.27;;;11.50;33.30;;;;;;4982507;28;20808;-73
2022/11/03 12:21:04;;;;;;;13.30;10.27;;;11.50;33.30;;;;;;4986391;28;20462;-70
2022/11/03 12:23:41;;;;;;;15.43;10.30;;;11.50;33.20;;;;;;4982551;28;20465;-64
2022/11/03 12:26:38;;;;;;;12.90;11.20;;;11.60;33.90;;;;;;4980253;28;20491;-61
2022/11/03 12:29:06;;;;;;;14.43;11.27;;;11.60;33.50;;;;;;4980471;28;20466;-63
2022/11/03 12:31:33;;;;;;;15.80;8.93;;;11.60;33.60;;;;;;4984114;28;20480;-63
2022/11/03 12:34:00;;;;;;;12.07;9.53;;;11.70;33.80;;;;;;4982285;28;20480;-69
2022/11/03 12:36:27;;;;;;;15.53;9.43;;;11.70;33.90;;;;;;4980635;28;20452;-69
2022/11/03 12:38:53;;;;;;;12.20;8.87;;;11.80;33.80;;;;;;4984999;28;20491;-70
2022/11/03 12:41:24;;;;;;;12.90;10.30;;;11.80;33.80;;;;;;4983886;28;20469;-69
2022/11/03 12:43:52;;;;;;;13.07;10.83;;;11.90;33.70;;;;;;4983703;28;20577;-67
2022/11/03 12:46:21;;;;;;;13.20;10.17;;;11.90;33.50;;;;;;4980099;28;20507;-69
2022/11/03 12:48:48;;;;;;;17.10;12.40;;;12.00;33.40;;;;;;4987855;28;20467;-72
2022/11/03 12:51:17;;;;;;;14.17;10.93;;;12.00;33.10;;;;;;4985252;28;20470;-67
2022/11/03 12:53:43;;;;;;;15.27;12.13;;;12.10;32.90;;;;;;4990120;28;21194;-68
2022/11/03 12:56:11;;;;;;;16.13;12.50;;;12.10;32.90;;;;;;4987472;28;20461;-68
2022/11/03 12:58:38;;;;;;;12.63;9.23;;;12.20;32.90;;;;;;4988277;28;20465;-68
2022/11/03 13:01:05;;;;;;;13.20;10.27;;;12.20;32.70;;;;;;4990640;28;20487;-70
2022/11/03 13:03:35;;;;;;;14.57;9.73;;;12.20;32.80;;;;;;5002373;28;20475;-69
2022/11/03 13:06:03;;;;;;;12.80;9.43;;;12.10;32.80;;;;;;4985426;28;20481;-69
2022/11/03 13:08:30;;;;;;;14.27;10.80;;;12.10;32.50;;;;;;4990783;28;20469;-70
2022/11/03 13:10:58;;;;;;;14.37;10.43;;;12.10;32.70;;;;;;4990512;28;20468;-67
2022/11/03 13:13:25;;;;;;;14.53;11.17;;;12.10;33.00;;;;;;4984824;28;20468;-66
2022/11/03 13:15:52;;;;;;;13.43;11.50;;;12.10;33.20;;;;;;4985451;28;21405;-70